createdAt,value
2023-04-15T00:00:59.861Z,10.58
2023-04-15T00:03:30.013Z,10.60
2023-04-15T00:05:58.793Z,10.58
2023-04-15T00:08:27.605Z,10.57
2023-04-15T00:10:56.163Z,10.56
2023-04-15T00:13:24.335Z,10.56
2023-04-15T00:15:52.749Z,10.54
2023-04-15T00:18:21.096Z,10.52
2023-04-15T00:20:49.229Z,10.50
2023-04-15T00:23:18.159Z,10.47
2023-04-15T00:25:47.149Z,10.45
2023-04-15T00:28:15.531Z,10.36
2023-04-15T00:30:44.900Z,10.41
2023-04-15T00:33:14.069Z,10.39
2023-04-15T00:35:42.441Z,10.38
2023-04-15T00:38:11.267Z,10.36
2023-04-15T00:40:39.690Z,10.34
2023-04-15T00:43:07.808Z,10.34
2023-04-15T00:45:36.026Z,10.32
2023-04-15T00:48:05.896Z,10.31
2023-04-15T00:50:34.398Z,10.30
2023-04-15T00:53:02.689Z,10.28
2023-04-15T00:55:30.804Z,10.25
2023-04-15T00:57:59.013Z,10.21
2023-04-15T01:00:27.557Z,10.19
2023-04-15T01:02:55.948Z,10.15
2023-04-15T01:05:25.173Z,10.13
2023-04-15T01:07:53.461Z,10.10
2023-04-15T01:10:22.285Z,10.08
2023-04-15T01:12:50.447Z,10.06
2023-04-15T01:15:18.680Z,10.03
2023-04-15T01:17:47.278Z,10.01
2023-04-15T01:20:16.904Z,9.99
2023-04-15T01:22:45.681Z,9.98
2023-04-15T01:25:20.510Z,9.95
2023-04-15T01:27:48.660Z,9.93
2023-04-15T01:30:17.716Z,9.90
2023-04-15T01:32:46.154Z,9.86
2023-04-15T01:35:14.345Z,9.84
2023-04-15T01:37:42.818Z,9.81
2023-04-15T01:40:11.404Z,9.80
2023-04-15T01:42:39.694Z,9.79
2023-04-15T01:45:08.502Z,9.80
2023-04-15T01:47:39.472Z,9.80
2023-04-15T01:50:08.668Z,9.82
2023-04-15T01:52:36.785Z,9.83
2023-04-15T01:55:06.391Z,9.85
2023-04-15T01:57:34.630Z,9.86
2023-04-15T02:00:04.677Z,9.88
2023-04-15T02:02:41.674Z,9.89
2023-04-15T02:05:10.032Z,9.92
2023-04-15T02:07:38.556Z,9.93
2023-04-15T02:10:06.965Z,9.95
2023-04-15T02:12:37.121Z,9.97
2023-04-15T02:15:06.078Z,9.96
2023-04-15T02:17:37.724Z,10.00
2023-04-15T02:20:06.506Z,10.02
2023-04-15T02:22:35.157Z,10.03
2023-04-15T02:25:03.483Z,10.04
2023-04-15T02:27:33.415Z,10.05
2023-04-15T02:30:01.853Z,10.06
2023-04-15T02:32:30.283Z,10.06
2023-04-15T02:35:03.152Z,10.07
2023-04-15T02:37:32.680Z,9.93
2023-04-15T02:40:01.604Z,10.06
2023-04-15T02:42:30.508Z,10.09
2023-04-15T02:45:01.545Z,10.10
2023-04-15T02:47:32.568Z,10.11
2023-04-15T02:50:01.897Z,10.12
2023-04-15T02:52:30.299Z,10.05
2023-04-15T02:55:00.901Z,10.14
2023-04-15T02:57:29.704Z,10.13
2023-04-15T02:59:59.185Z,10.13
2023-04-15T03:02:27.562Z,10.13
2023-04-15T03:04:55.849Z,10.13
2023-04-15T03:07:24.147Z,10.13
2023-04-15T03:09:52.674Z,10.13
2023-04-15T03:12:21.154Z,10.14
2023-04-15T03:14:49.577Z,10.12
2023-04-15T03:17:18.255Z,10.15
2023-04-15T03:19:46.561Z,10.14
2023-04-15T03:22:14.829Z,10.14
2023-04-15T03:24:43.195Z,10.13
2023-04-15T03:27:13.313Z,10.14
2023-04-15T03:29:41.518Z,10.14
2023-04-15T03:32:09.762Z,10.12
2023-04-15T03:34:37.897Z,10.14
2023-04-15T03:37:06.072Z,10.14
2023-04-15T03:39:34.601Z,10.14
2023-04-15T03:42:03.595Z,10.14
2023-04-15T03:44:32.027Z,10.14
2023-04-15T03:47:00.322Z,10.11
2023-04-15T03:49:28.729Z,10.12
2023-04-15T03:51:57.618Z,10.11
2023-04-15T03:54:25.791Z,10.11
2023-04-15T03:56:53.901Z,10.10
2023-04-15T03:59:22.144Z,10.10
2023-04-15T04:01:51.101Z,10.09
2023-04-15T04:04:19.456Z,10.09
2023-04-15T04:06:47.748Z,10.10
2023-04-15T04:09:15.930Z,10.11
2023-04-15T04:11:45.651Z,10.11
2023-04-15T04:14:13.736Z,10.10
2023-04-15T04:16:42.217Z,10.09
2023-04-15T04:19:10.538Z,10.10
2023-04-15T04:21:39.781Z,10.08
2023-04-15T04:24:07.967Z,10.09
2023-04-15T04:26:36.081Z,10.10
2023-04-15T04:29:04.300Z,10.11
2023-04-15T04:31:32.543Z,10.11
2023-04-15T04:34:01.154Z,10.13
2023-04-15T04:36:29.338Z,10.04
2023-04-15T04:38:57.498Z,10.07
2023-04-15T04:41:25.660Z,10.16
2023-04-15T04:43:53.789Z,10.16
2023-04-15T04:46:22.029Z,10.18
2023-04-15T04:48:50.402Z,10.17
2023-04-15T04:51:18.547Z,10.21
2023-04-15T04:53:46.832Z,10.23
2023-04-15T04:56:14.945Z,10.27
2023-04-15T04:58:43.011Z,10.30
2023-04-15T05:01:11.297Z,10.33
2023-04-15T05:03:39.689Z,10.39
2023-04-15T05:06:08.945Z,10.44
2023-04-15T05:08:39.169Z,10.45
2023-04-15T05:11:09.127Z,10.54
2023-04-15T05:13:38.839Z,10.59
2023-04-15T05:16:07.888Z,10.68
2023-04-15T05:18:36.839Z,10.80
2023-04-15T05:21:05.289Z,10.90
2023-04-15T05:23:34.039Z,10.95
2023-04-15T05:26:02.443Z,10.93
2023-04-15T05:28:31.059Z,11.05
2023-04-15T05:30:59.294Z,11.01
2023-04-15T05:33:27.676Z,11.12
2023-04-15T05:35:55.825Z,11.15
2023-04-15T05:38:24.093Z,11.12
2023-04-15T05:40:52.206Z,11.16
2023-04-15T05:43:21.065Z,11.19
2023-04-15T05:45:49.417Z,11.22
2023-04-15T05:48:17.591Z,11.26
2023-04-15T05:50:45.800Z,11.31
2023-04-15T05:53:13.906Z,11.34
2023-04-15T05:55:41.977Z,11.37
2023-04-15T05:58:10.100Z,11.42
2023-04-15T06:00:38.771Z,11.34
2023-04-15T06:03:08.083Z,11.44
2023-04-15T06:05:36.355Z,11.54
2023-04-15T06:08:04.845Z,11.58
2023-04-15T06:10:36.816Z,11.64
2023-04-15T06:13:05.267Z,11.72
2023-04-15T06:15:33.560Z,11.76
2023-04-15T06:18:02.125Z,11.79
2023-04-15T06:20:30.494Z,11.85
2023-04-15T06:22:58.630Z,11.90
2023-04-15T06:25:26.781Z,11.93
2023-04-15T06:27:54.967Z,12.00
2023-04-15T06:30:24.432Z,12.06
2023-04-15T06:32:52.837Z,12.12
2023-04-15T06:35:21.512Z,12.09
2023-04-15T06:37:49.751Z,12.18
2023-04-15T06:40:17.990Z,12.28
2023-04-15T06:42:46.171Z,12.36
2023-04-15T06:45:14.505Z,12.40
2023-04-15T06:47:43.759Z,12.46
2023-04-15T06:50:11.987Z,12.49
2023-04-15T06:52:40.290Z,12.52
2023-04-15T06:55:08.862Z,12.58
2023-04-15T06:57:37.037Z,12.57
2023-04-15T07:00:05.915Z,12.68
2023-04-15T07:02:34.251Z,12.75
2023-04-15T07:05:02.895Z,12.84
2023-04-15T07:07:31.285Z,12.85
2023-04-15T07:10:00.342Z,12.84
2023-04-15T07:12:28.497Z,12.76
2023-04-15T07:14:58.315Z,12.78
2023-04-15T07:17:26.656Z,12.75
2023-04-15T07:19:54.681Z,12.77
2023-04-15T07:22:22.847Z,12.86
2023-04-15T07:24:50.955Z,12.93
2023-04-15T07:27:19.060Z,13.00
2023-04-15T07:29:47.404Z,13.06
2023-04-15T07:32:15.524Z,13.14
2023-04-15T07:34:44.475Z,13.21
2023-04-15T07:37:12.805Z,13.26
2023-04-15T07:39:40.943Z,13.26
2023-04-15T07:42:09.034Z,13.26
2023-04-15T07:44:37.237Z,13.21
2023-04-15T07:47:05.553Z,13.27
2023-04-15T07:49:33.643Z,13.21
2023-04-15T07:52:01.803Z,13.13
2023-04-15T07:54:29.903Z,13.06
2023-04-15T07:56:58.210Z,13.00
2023-04-15T07:59:27.782Z,12.94
2023-04-15T08:01:55.932Z,12.92
2023-04-15T08:04:24.141Z,12.87
2023-04-15T08:06:53.106Z,12.84
2023-04-15T08:09:21.730Z,12.83
2023-04-15T08:11:50.985Z,12.81
2023-04-15T08:14:19.214Z,12.77
2023-04-15T08:16:50.309Z,12.78
2023-04-15T08:19:18.439Z,12.81
2023-04-15T08:21:47.026Z,12.82
2023-04-15T08:24:15.812Z,12.81
2023-04-15T08:26:43.969Z,12.69
2023-04-15T08:29:12.333Z,12.71
2023-04-15T08:31:40.637Z,12.67
2023-04-15T08:34:09.413Z,12.65
2023-04-15T08:36:37.479Z,12.67
2023-04-15T08:39:05.884Z,12.68
2023-04-15T08:41:48.382Z,12.61
2023-04-15T08:44:17.987Z,12.55
2023-04-15T08:46:46.607Z,12.51
2023-04-15T08:49:18.182Z,12.50
2023-04-15T08:51:46.647Z,12.48
2023-04-15T08:54:14.973Z,12.50
2023-04-15T08:56:43.383Z,12.63
2023-04-15T08:59:12.585Z,12.81
2023-04-15T09:01:41.831Z,13.20
2023-04-15T09:04:12.648Z,13.66
2023-04-15T09:06:41.623Z,14.13
2023-04-15T09:09:09.864Z,14.49
2023-04-15T09:11:38.000Z,14.53
2023-04-15T09:14:06.502Z,14.60
2023-04-15T09:16:57.778Z,14.63
2023-04-15T09:19:26.652Z,14.49
2023-04-15T09:21:59.562Z,14.38
2023-04-15T09:24:37.624Z,14.31
2023-04-15T09:27:06.663Z,14.26
2023-04-15T09:29:35.023Z,14.22
2023-04-15T09:32:11.635Z,14.16
2023-04-15T09:34:40.026Z,14.03
2023-04-15T09:37:10.992Z,14.05
2023-04-15T09:39:52.829Z,14.08
2023-04-15T09:42:24.684Z,13.98
2023-04-15T09:44:53.269Z,13.89
2023-04-15T09:47:31.701Z,13.87
2023-04-15T09:50:01.375Z,13.80
2023-04-15T09:52:30.355Z,13.69
2023-04-15T09:55:00.182Z,13.57
2023-04-15T09:57:36.675Z,13.58
2023-04-15T10:00:08.177Z,13.55
2023-04-15T10:02:38.209Z,13.46
2023-04-15T10:05:07.493Z,13.35
2023-04-15T10:07:36.052Z,13.26
2023-04-15T10:10:05.598Z,13.21
2023-04-15T10:12:33.942Z,13.19
2023-04-15T10:15:05.265Z,13.19
2023-04-15T10:17:45.850Z,13.20
2023-04-15T10:20:15.275Z,13.10
2023-04-15T10:22:45.537Z,13.10
2023-04-15T10:25:15.856Z,13.05
2023-04-15T10:27:44.330Z,13.01
2023-04-15T10:30:12.826Z,13.02
2023-04-15T10:32:42.113Z,13.16
2023-04-15T10:35:11.360Z,13.31
2023-04-15T10:37:39.732Z,13.37
2023-04-15T10:40:34.884Z,13.45
2023-04-15T10:43:03.552Z,13.54
2023-04-15T10:45:39.769Z,13.64
2023-04-15T10:48:09.279Z,13.84
2023-04-15T10:50:37.927Z,14.16
2023-04-15T10:53:06.180Z,15.07
2023-04-15T10:55:34.875Z,16.03
2023-04-15T10:58:03.413Z,16.33
2023-04-15T11:00:33.048Z,16.39
2023-04-15T11:03:11.186Z,16.11
2023-04-15T11:05:42.620Z,15.76
2023-04-15T11:08:12.063Z,15.42
2023-04-15T11:10:40.458Z,15.16
2023-04-15T11:13:11.814Z,14.86
2023-04-15T11:15:41.917Z,14.60
2023-04-15T11:18:12.830Z,14.40
2023-04-15T11:20:43.043Z,14.17
2023-04-15T11:23:14.326Z,13.99
2023-04-15T11:25:44.429Z,13.82
2023-04-15T11:28:13.390Z,13.62
2023-04-15T11:30:43.315Z,13.48
2023-04-15T11:33:12.727Z,13.29
2023-04-15T11:35:44.289Z,13.26
2023-04-15T11:38:16.727Z,13.25
2023-04-15T11:40:47.043Z,13.23
2023-04-15T11:43:21.237Z,13.15
2023-04-15T11:45:55.257Z,13.07
2023-04-15T11:48:34.992Z,13.02
2023-04-15T11:51:05.611Z,12.91
2023-04-15T11:53:46.169Z,12.82
2023-04-15T11:56:19.890Z,12.75
2023-04-15T11:58:49.946Z,12.71
2023-04-15T12:01:18.872Z,12.64
2023-04-15T12:03:49.637Z,12.57
2023-04-15T12:06:25.350Z,12.47
2023-04-15T12:09:01.513Z,12.38
2023-04-15T12:11:35.464Z,12.28
2023-04-15T12:14:04.079Z,12.27
2023-04-15T12:16:37.031Z,12.21
2023-04-15T12:19:29.821Z,12.14
2023-04-15T12:22:03.533Z,12.08
2023-04-15T12:24:32.415Z,12.03
2023-04-15T12:27:08.621Z,11.98
2023-04-15T12:29:38.899Z,11.96
2023-04-15T12:32:15.644Z,11.97
2023-04-15T12:34:44.796Z,11.97
2023-04-15T12:37:16.345Z,11.95
2023-04-15T12:39:46.248Z,11.82
2023-04-15T12:42:15.810Z,11.85
2023-04-15T12:44:44.055Z,11.83
2023-04-15T12:47:13.210Z,11.83
2023-04-15T12:49:41.550Z,11.81
2023-04-15T12:52:09.915Z,11.80
2023-04-15T12:54:38.013Z,11.72
2023-04-15T12:57:07.429Z,11.78
2023-04-15T12:59:36.581Z,11.81
2023-04-15T13:02:04.845Z,11.82
2023-04-15T13:04:33.478Z,11.84
2023-04-15T13:07:02.595Z,11.86
2023-04-15T13:09:31.242Z,11.83
2023-04-15T13:11:59.678Z,11.81
2023-04-15T13:14:27.812Z,11.82
2023-04-15T13:16:55.968Z,11.86
2023-04-15T13:19:24.121Z,11.87
2023-04-15T13:21:52.305Z,11.90
2023-04-15T13:24:20.539Z,11.93
2023-04-15T13:26:50.363Z,11.98
2023-04-15T13:29:18.908Z,12.03
2023-04-15T13:31:47.164Z,12.07
2023-04-15T13:34:15.698Z,12.10
2023-04-15T13:36:43.769Z,12.16
2023-04-15T13:39:12.143Z,12.19
2023-04-15T13:41:40.640Z,12.23
2023-04-15T13:44:08.756Z,12.25
2023-04-15T13:46:37.985Z,12.26
2023-04-15T13:49:06.227Z,12.27
2023-04-15T13:51:37.016Z,12.30
2023-04-15T13:54:05.577Z,12.31
2023-04-15T13:56:33.994Z,12.27
2023-04-15T13:59:03.303Z,12.26
2023-04-15T14:01:31.593Z,12.23
2023-04-15T14:03:59.842Z,12.19
2023-04-15T14:06:29.020Z,12.17
2023-04-15T14:08:57.162Z,12.17
2023-04-15T14:11:25.247Z,12.15
2023-04-15T14:13:53.310Z,12.15
2023-04-15T14:16:21.784Z,12.17
2023-04-15T14:18:49.933Z,12.16
2023-04-15T14:21:18.116Z,12.13
2023-04-15T14:23:46.173Z,12.06
2023-04-15T14:26:14.861Z,11.96
2023-04-15T14:28:45.123Z,11.87
2023-04-15T14:31:14.345Z,11.82
2023-04-15T14:33:42.658Z,11.77
2023-04-15T14:36:10.944Z,11.76
2023-04-15T14:38:40.144Z,11.74
2023-04-15T14:41:08.904Z,11.70
2023-04-15T14:43:37.093Z,11.69
2023-04-15T14:46:05.587Z,11.67
2023-04-15T14:48:33.894Z,11.65
2023-04-15T14:51:02.282Z,11.63
2023-04-15T14:53:30.490Z,11.65
2023-04-15T14:55:58.793Z,11.60
2023-04-15T14:58:27.296Z,11.69
2023-04-15T15:00:55.606Z,11.69
2023-04-15T15:03:23.942Z,11.70
2023-04-15T15:05:52.331Z,11.70
2023-04-15T15:08:20.764Z,11.72
2023-04-15T15:10:49.908Z,11.68
2023-04-15T15:13:19.335Z,11.65
2023-04-15T15:15:49.865Z,11.61
2023-04-15T15:18:19.620Z,11.57
2023-04-15T15:20:48.093Z,11.47
2023-04-15T15:23:16.303Z,11.51
2023-04-15T15:25:44.739Z,11.48
2023-04-15T15:28:13.137Z,11.47
2023-04-15T15:30:41.334Z,11.45
2023-04-15T15:33:09.502Z,11.37
2023-04-15T15:35:37.628Z,11.31
2023-04-15T15:38:06.451Z,11.28
2023-04-15T15:40:34.606Z,11.18
2023-04-15T15:43:03.045Z,11.25
2023-04-15T15:45:31.435Z,11.25
2023-04-15T15:48:00.305Z,11.16
2023-04-15T15:50:28.627Z,11.17
2023-04-15T15:52:58.738Z,11.14
2023-04-15T15:55:27.407Z,11.10
2023-04-15T15:57:55.667Z,11.06
2023-04-15T16:00:23.878Z,10.95
2023-04-15T16:03:06.601Z,11.00
2023-04-15T16:05:36.276Z,10.91
2023-04-15T16:08:04.918Z,10.94
2023-04-15T16:10:33.495Z,10.94
2023-04-15T16:13:02.215Z,10.93
2023-04-15T16:15:30.567Z,10.90
2023-04-15T16:17:58.807Z,10.78
2023-04-15T16:20:28.490Z,10.79
2023-04-15T16:22:58.406Z,10.73
2023-04-15T16:25:26.749Z,10.68
2023-04-15T16:28:05.578Z,10.65
2023-04-15T16:30:41.395Z,10.61
2023-04-15T16:33:09.957Z,10.58
2023-04-15T16:35:38.062Z,10.56
2023-04-15T16:38:06.657Z,10.52
2023-04-15T16:40:35.110Z,10.50
2023-04-15T16:43:03.735Z,10.46
2023-04-15T16:45:31.829Z,10.43
2023-04-15T16:47:59.930Z,10.41
2023-04-15T16:50:28.097Z,10.42
2023-04-15T16:52:56.225Z,10.41
2023-04-15T16:55:24.363Z,10.36
2023-04-15T16:58:02.695Z,10.31
2023-04-15T17:00:32.093Z,10.26
2023-04-15T17:03:00.972Z,10.23
2023-04-15T17:05:30.988Z,10.21
2023-04-15T17:07:59.477Z,10.18
2023-04-15T17:10:28.145Z,10.17
2023-04-15T17:12:57.331Z,10.14
2023-04-15T17:15:26.228Z,10.10
2023-04-15T17:17:54.650Z,10.07
2023-04-15T17:20:23.002Z,10.04
2023-04-15T17:22:51.104Z,10.01
2023-04-15T17:25:19.551Z,9.97
2023-04-15T17:27:47.752Z,9.93
2023-04-15T17:30:16.309Z,9.90
2023-04-15T17:32:44.474Z,9.87
2023-04-15T17:35:12.751Z,9.85
2023-04-15T17:37:41.042Z,9.83
2023-04-15T17:40:09.689Z,9.80
2023-04-15T17:42:37.883Z,9.76
2023-04-15T17:45:06.625Z,9.73
2023-04-15T17:47:34.838Z,9.70
2023-04-15T17:50:02.998Z,9.67
2023-04-15T17:52:31.177Z,9.65
2023-04-15T17:54:59.535Z,9.64
2023-04-15T17:57:27.621Z,9.61
2023-04-15T17:59:55.910Z,9.60
2023-04-15T18:02:24.571Z,9.60
2023-04-15T18:04:53.152Z,9.56
2023-04-15T18:07:21.354Z,9.51
2023-04-15T18:09:50.840Z,9.47
2023-04-15T18:12:18.965Z,9.45
2023-04-15T18:14:47.108Z,9.45
2023-04-15T18:17:15.449Z,9.43
2023-04-15T18:19:43.679Z,9.41
2023-04-15T18:22:12.355Z,9.37
2023-04-15T18:24:40.795Z,9.34
2023-04-15T18:27:09.036Z,9.29
2023-04-15T18:29:37.264Z,9.26
2023-04-15T18:32:05.631Z,9.23
2023-04-15T18:34:33.799Z,9.22
2023-04-15T18:37:02.206Z,9.20
2023-04-15T18:39:30.998Z,9.16
2023-04-15T18:41:59.117Z,9.12
2023-04-15T18:44:28.475Z,9.12
2023-04-15T18:46:56.757Z,9.07
2023-04-15T18:49:25.922Z,9.05
2023-04-15T18:51:54.229Z,9.03
2023-04-15T18:54:22.476Z,9.03
2023-04-15T18:56:51.782Z,8.95
2023-04-15T18:59:29.042Z,8.84
2023-04-15T19:02:00.255Z,8.97
2023-04-15T19:04:31.033Z,8.95
2023-04-15T19:06:59.356Z,8.92
2023-04-15T19:09:28.952Z,8.89
2023-04-15T19:11:57.868Z,8.87
2023-04-15T19:14:26.074Z,8.85
2023-04-15T19:16:54.307Z,8.84
2023-04-15T19:19:22.734Z,8.82
2023-04-15T19:21:51.394Z,8.81
2023-04-15T19:24:19.981Z,8.79
2023-04-15T19:26:50.781Z,8.78
2023-04-15T19:29:19.092Z,8.75
2023-04-15T19:31:47.205Z,8.74
2023-04-15T19:34:15.472Z,8.75
2023-04-15T19:36:43.640Z,8.74
2023-04-15T19:39:12.107Z,8.73
2023-04-15T19:41:40.243Z,8.73
2023-04-15T19:44:08.522Z,8.70
2023-04-15T19:46:36.802Z,8.67
2023-04-15T19:49:05.460Z,8.64
2023-04-15T19:51:33.789Z,8.64
2023-04-15T19:54:01.864Z,8.64
2023-04-15T19:56:31.240Z,8.62
2023-04-15T19:59:02.017Z,8.61
2023-04-15T20:01:30.361Z,8.61
2023-04-15T20:03:59.160Z,8.61
2023-04-15T20:06:27.788Z,8.63
2023-04-15T20:08:56.467Z,8.64
2023-04-15T20:12:10.040Z,8.64
2023-04-15T20:14:17.914Z,8.64
2023-04-15T20:16:46.132Z,8.63
2023-04-15T20:19:14.779Z,8.62
2023-04-15T20:21:42.970Z,8.61
2023-04-15T20:24:11.261Z,8.61
2023-04-15T20:26:39.432Z,8.59
2023-04-15T20:29:07.925Z,8.58
2023-04-15T20:31:36.547Z,8.56
2023-04-15T20:34:04.721Z,8.54
2023-04-15T20:36:33.408Z,8.51
2023-04-15T20:39:01.668Z,8.51
2023-04-15T20:41:29.987Z,8.51
2023-04-15T20:43:58.111Z,8.47
2023-04-15T20:46:27.820Z,8.44
2023-04-15T20:48:56.238Z,8.43
2023-04-15T20:51:24.412Z,8.38
2023-04-15T20:53:52.490Z,8.35
2023-04-15T20:56:20.885Z,8.30
2023-04-15T20:58:49.018Z,8.27
2023-04-15T21:01:17.201Z,8.25
2023-04-15T21:03:45.474Z,8.23
2023-04-15T21:06:13.983Z,8.21
2023-04-15T21:08:42.106Z,8.19
2023-04-15T21:11:10.352Z,8.17
2023-04-15T21:13:38.543Z,8.15
2023-04-15T21:16:06.668Z,8.15
2023-04-15T21:18:34.893Z,8.14
2023-04-15T21:21:03.626Z,8.14
2023-04-15T21:23:31.909Z,8.14
2023-04-15T21:26:00.172Z,8.14
2023-04-15T21:28:30.021Z,8.14
2023-04-15T21:30:58.274Z,8.14
2023-04-15T21:33:27.279Z,8.13
2023-04-15T21:35:55.692Z,8.11
2023-04-15T21:38:24.012Z,8.10
2023-04-15T21:40:52.284Z,8.09
2023-04-15T21:43:22.976Z,8.10
2023-04-15T21:46:21.480Z,8.12
2023-04-15T21:48:39.953Z,8.12
2023-04-15T21:51:08.144Z,8.12
2023-04-15T21:53:36.322Z,8.13
2023-04-15T21:56:04.693Z,8.14
2023-04-15T21:58:32.951Z,8.14
2023-04-15T22:01:01.344Z,8.16
2023-04-15T22:03:33.483Z,8.17
2023-04-15T22:06:05.066Z,8.18
2023-04-15T22:08:38.538Z,8.10
2023-04-15T22:11:10.511Z,8.17
2023-04-15T22:13:38.553Z,8.08
2023-04-15T22:16:06.648Z,8.16
2023-04-15T22:18:34.840Z,8.14
2023-04-15T22:21:03.113Z,8.15
2023-04-15T22:23:31.186Z,8.14
2023-04-15T22:25:59.918Z,8.14
2023-04-15T22:28:28.054Z,8.16
2023-04-15T22:30:58.161Z,8.15
2023-04-15T22:33:26.318Z,8.15
2023-04-15T22:35:54.492Z,8.14
2023-04-15T22:38:22.834Z,8.10
2023-04-15T22:40:53.959Z,8.06
2023-04-15T22:43:22.717Z,8.06
2023-04-15T22:45:51.540Z,8.05
2023-04-15T22:48:19.671Z,8.03
2023-04-15T22:50:47.996Z,8.01
2023-04-15T22:53:17.382Z,8.00
2023-04-15T22:55:47.149Z,8.01
2023-04-15T22:58:17.257Z,8.02
2023-04-15T23:00:45.762Z,8.01
2023-04-15T23:03:14.124Z,7.98
2023-04-15T23:05:45.114Z,7.97
2023-04-15T23:08:13.219Z,7.95
2023-04-15T23:10:41.372Z,7.95
2023-04-15T23:13:09.475Z,7.93
2023-04-15T23:15:37.588Z,7.93
2023-04-15T23:18:05.900Z,7.86
2023-04-15T23:20:34.268Z,7.89
2023-04-15T23:23:02.313Z,7.86
2023-04-15T23:25:30.397Z,7.84
2023-04-15T23:27:58.593Z,7.83
2023-04-15T23:30:26.861Z,7.83
2023-04-15T23:32:55.203Z,7.83
2023-04-15T23:35:23.979Z,7.85
2023-04-15T23:37:52.113Z,7.85
2023-04-15T23:40:20.369Z,7.83
2023-04-15T23:42:48.540Z,7.79
2023-04-15T23:45:16.680Z,7.78
2023-04-15T23:47:44.850Z,7.76
2023-04-15T23:50:13.066Z,7.75
2023-04-15T23:52:41.181Z,7.75
2023-04-15T23:55:09.832Z,7.74
2023-04-15T23:57:37.979Z,7.74
